Time;durP1;ratioP1;P1;durP2;ratioP2;P2;SDS_P1;SDS_P2;PMS_P1;PMS_P2;Temp;Humidity;BMP_temperature;BMP_pressure;BME280_temperature;BME280_humidity;BME280_pressure;Samples;Min_cycle;Max_cycle;Signal;HPM_P1;HPM_P2
2022/10/15 00:00:13;;;;;;;77.80;64.20;;;;;;;;;;5108922;28;20111;-61
2022/10/15 00:02:39;;;;;;;79.82;65.47;;;;;;;;;;5109988;28;20118;-62
2022/10/15 00:05:05;;;;;;;73.95;62.65;;;;;;;;;;5112786;28;20054;-61
2022/10/15 00:07:31;;;;;;;76.43;64.35;;;;;;;;;;5113310;28;20034;-62
2022/10/15 00:09:57;;;;;;;81.00;65.63;;;;;;;;;;5111955;28;20031;-62
2022/10/15 00:12:23;;;;;;;82.38;64.32;;;;;;;;;;5111695;28;20437;-62
2022/10/15 00:14:49;;;;;;;74.70;65.82;;;;;;;;;;5112483;28;20049;-61
2022/10/15 00:17:15;;;;;;;83.22;66.72;;;;;;;;;;5112876;28;20028;-63
2022/10/15 00:19:41;;;;;;;80.40;64.90;;;;;;;;;;5112833;28;20085;-59
2022/10/15 00:22:06;;;;;;;82.25;65.95;;;;;;;;;;5111148;28;20028;-61
2022/10/15 00:24:32;;;;;;;79.75;65.00;;;;;;;;;;5111258;28;20076;-59
2022/10/15 00:26:58;;;;;;;84.95;69.05;;;;;;;;;;5109794;28;20028;-61
2022/10/15 00:29:24;;;;;;;80.07;64.13;;;;;;;;;;5092099;28;20039;-62
2022/10/15 00:31:50;;;;;;;75.47;63.70;;;;;;;;;;5091893;28;20081;-63
2022/10/15 00:34:16;;;;;;;76.10;62.80;;;;;;;;;;5090676;28;20466;-60
2022/10/15 00:36:42;;;;;;;81.93;62.10;;;;;;;;;;5091852;28;20024;-58
2022/10/15 00:39:08;;;;;;;78.13;64.30;;;;;;;;;;5090716;28;20514;-60
2022/10/15 00:41:36;;;;;;;78.50;64.57;;;;;;;;;;5091745;28;20408;-61
2022/10/15 00:44:22;;;;;;;83.75;66.05;;;;;;;;;;5091866;28;20090;-58
2022/10/15 00:46:53;;;;;;;81.65;65.10;;;;;;;;;;5091624;28;20035;-59
2022/10/15 00:49:39;;;;;;;77.22;63.10;;;;;;;;;;5091839;28;20020;-59
2022/10/15 00:52:05;;;;;;;76.57;63.67;;;;;;;;;;5091688;28;20032;-58
2022/10/15 00:54:32;;;;;;;80.43;64.10;;;;;;;;;;5091431;28;20564;-58
2022/10/15 00:56:59;;;;;;;68.68;61.40;;;;;;;;;;5091578;28;20078;-61
2022/10/15 00:59:26;;;;;;;79.13;62.97;;;;;;;;;;5091690;28;20031;-59
2022/10/15 01:01:52;;;;;;;77.47;63.92;;;;;;;;;;5091599;28;20056;-62
2022/10/15 01:04:19;;;;;;;77.40;62.83;;;;;;;;;;5091440;28;20027;-62
2022/10/15 01:06:45;;;;;;;78.68;62.53;;;;;;;;;;5091745;28;20051;-65
2022/10/15 01:09:12;;;;;;;87.22;65.30;;;;;;;;;;5091615;28;20047;-60
2022/10/15 01:11:44;;;;;;;77.97;62.72;;;;;;;;;;5091381;28;20556;-62
2022/10/15 01:14:10;;;;;;;74.07;62.40;;;;;;;;;;5092509;28;20039;-60
2022/10/15 01:16:54;;;;;;;84.63;66.05;;;;;;;;;;5091014;28;20532;-61
2022/10/15 01:19:20;;;;;;;87.07;65.70;;;;;;;;;;5094459;28;20020;-62
2022/10/15 01:22:09;;;;;;;75.40;64.45;;;;;;;;;;5095710;28;20157;-61
2022/10/15 01:24:43;;;;;;;92.40;65.07;;;;;;;;;;5095410;28;20020;-61
2022/10/15 01:27:15;;;;;;;82.75;63.70;;;;;;;;;;5095565;28;20032;-61
2022/10/15 01:30:03;;;;;;;83.82;63.22;;;;;;;;;;5096784;28;20028;-61
2022/10/15 01:32:34;;;;;;;90.30;65.32;;;;;;;;;;5109520;28;20040;-60
2022/10/15 01:35:00;;;;;;;90.85;66.63;;;;;;;;;;5115436;28;20038;-59
2022/10/15 01:37:26;;;;;;;92.18;66.75;;;;;;;;;;5115723;28;20035;-61
2022/10/15 01:40:05;;;;;;;93.70;66.50;;;;;;;;;;5115764;28;20157;-61
2022/10/15 01:42:33;;;;;;;93.75;68.63;;;;;;;;;;5102998;28;20103;-60
2022/10/15 01:44:59;;;;;;;;;;;;;;;;;;5095699;28;20025;-60
2022/10/15 01:47:30;;;;;;;94.28;68.53;;;;;;;;;;5095238;28;20073;-61
2022/10/15 01:49:57;;;;;;;90.10;64.68;;;;;;;;;;5094045;28;20032;-62
2022/10/15 01:52:25;;;;;;;91.68;67.07;;;;;;;;;;5094878;28;20036;-59
2022/10/15 01:54:52;;;;;;;84.53;65.53;;;;;;;;;;5094676;28;20024;-61
2022/10/15 01:57:19;;;;;;;87.10;65.03;;;;;;;;;;5111253;28;20032;-61
2022/10/15 01:59:46;;;;;;;87.63;66.47;;;;;;;;;;5115438;28;20012;-60
2022/10/15 02:02:12;;;;;;;83.38;65.70;;;;;;;;;;5115259;28;20412;-61
2022/10/15 02:04:38;;;;;;;90.55;66.72;;;;;;;;;;5113665;28;20049;-62
2022/10/15 02:07:09;;;;;;;88.00;64.07;;;;;;;;;;5114004;28;20059;-62
2022/10/15 02:09:42;;;;;;;89.88;66.47;;;;;;;;;;5115261;28;20419;-60
2022/10/15 02:12:08;;;;;;;82.65;67.60;;;;;;;;;;5115154;28;20027;-59
2022/10/15 02:14:37;;;;;;;86.60;68.85;;;;;;;;;;5114640;28;20437;-61
2022/10/15 02:17:07;;;;;;;93.35;67.22;;;;;;;;;;5114900;28;20027;-60
2022/10/15 02:19:33;;;;;;;79.55;65.47;;;;;;;;;;5113745;28;20080;-61
2022/10/15 02:22:13;;;;;;;89.07;66.75;;;;;;;;;;5100309;28;20024;-60
2022/10/15 02:24:46;;;;;;;81.35;67.38;;;;;;;;;;5094309;28;20240;-61
2022/10/15 02:27:12;;;;;;;82.53;65.35;;;;;;;;;;5093851;28;20026;-61
2022/10/15 02:29:40;;;;;;;78.72;62.65;;;;;;;;;;5094425;28;20028;-60
2022/10/15 02:32:06;;;;;;;85.80;65.97;;;;;;;;;;5093729;28;20044;-62
2022/10/15 02:34:32;;;;;;;85.20;68.65;;;;;;;;;;5093983;28;20081;-59
2022/10/15 02:37:01;;;;;;;85.55;67.32;;;;;;;;;;5094281;28;20368;-61
2022/10/15 02:39:27;;;;;;;86.55;67.57;;;;;;;;;;5094210;28;20023;-61
2022/10/15 02:41:53;;;;;;;88.75;68.65;;;;;;;;;;5095594;28;20118;-60
2022/10/15 02:44:19;;;;;;;93.65;70.53;;;;;;;;;;5093592;28;20391;-61
2022/10/15 02:46:45;;;;;;;93.70;70.82;;;;;;;;;;5092839;28;20034;-61
2022/10/15 02:49:11;;;;;;;89.95;71.32;;;;;;;;;;5092810;28;20020;-61
2022/10/15 02:51:37;;;;;;;95.28;72.93;;;;;;;;;;5093936;28;20518;-61
2022/10/15 02:54:04;;;;;;;92.43;69.30;;;;;;;;;;5093628;28;20031;-61
2022/10/15 02:56:30;;;;;;;102.75;71.63;;;;;;;;;;5105716;28;20027;-59
2022/10/15 02:58:56;;;;;;;96.15;73.25;;;;;;;;;;5114085;28;20024;-59
2022/10/15 03:01:22;;;;;;;104.68;69.95;;;;;;;;;;5113043;28;20023;-62
2022/10/15 03:03:48;;;;;;;96.35;68.13;;;;;;;;;;5113780;28;20425;-61
2022/10/15 03:06:14;;;;;;;91.30;68.07;;;;;;;;;;5114044;28;20023;-59
2022/10/15 03:08:41;;;;;;;88.60;67.60;;;;;;;;;;5113956;28;20071;-63
2022/10/15 03:11:07;;;;;;;94.88;69.25;;;;;;;;;;5112623;28;20020;-61
2022/10/15 03:13:37;;;;;;;103.03;66.80;;;;;;;;;;5113709;28;20035;-63
2022/10/15 03:16:07;;;;;;;106.47;68.55;;;;;;;;;;5113838;28;20046;-63
2022/10/15 03:18:33;;;;;;;92.25;65.72;;;;;;;;;;5112688;28;20038;-60
2022/10/15 03:20:59;;;;;;;104.43;67.63;;;;;;;;;;5113719;28;20023;-61
2022/10/15 03:23:25;;;;;;;103.85;65.55;;;;;;;;;;5113741;28;20034;-61
2022/10/15 03:25:51;;;;;;;163.23;69.65;;;;;;;;;;5111987;28;20099;-60
2022/10/15 03:28:17;;;;;;;134.38;68.07;;;;;;;;;;5113119;28;20111;-58
2022/10/15 03:30:44;;;;;;;141.55;66.03;;;;;;;;;;5113499;28;20616;-60
2022/10/15 03:33:10;;;;;;;126.00;65.78;;;;;;;;;;5112177;28;20043;-61
2022/10/15 03:35:36;;;;;;;173.93;73.85;;;;;;;;;;5113053;28;20019;-62
2022/10/15 03:38:02;;;;;;;151.85;69.72;;;;;;;;;;5113475;28;20111;-61
2022/10/15 03:40:28;;;;;;;98.13;66.82;;;;;;;;;;5112532;28;20051;-62
2022/10/15 03:42:55;;;;;;;130.68;69.13;;;;;;;;;;5097178;28;20468;-62
2022/10/15 03:45:21;;;;;;;104.88;65.30;;;;;;;;;;5092631;28;20016;-58
2022/10/15 03:47:47;;;;;;;118.50;67.40;;;;;;;;;;5092964;28;20107;-61
2022/10/15 03:50:13;;;;;;;98.40;66.40;;;;;;;;;;5092952;28;20031;-60
2022/10/15 03:52:39;;;;;;;97.30;63.45;;;;;;;;;;5091564;28;20097;-61
2022/10/15 03:55:06;;;;;;;92.82;62.85;;;;;;;;;;5092652;28;20437;-61
2022/10/15 03:57:32;;;;;;;88.05;63.85;;;;;;;;;;5105521;28;20487;-60
2022/10/15 03:59:58;;;;;;;123.28;64.97;;;;;;;;;;5104955;28;20031;-60
2022/10/15 04:02:24;;;;;;;97.40;62.20;;;;;;;;;;5092544;28;20116;-61
2022/10/15 04:04:54;;;;;;;97.72;62.88;;;;;;;;;;5092235;28;20024;-60
2022/10/15 04:07:20;;;;;;;95.57;62.72;;;;;;;;;;5092492;28;20034;-59
2022/10/15 04:09:46;;;;;;;105.38;65.30;;;;;;;;;;5092553;28;20035;-62
2022/10/15 04:12:13;;;;;;;119.03;68.32;;;;;;;;;;5092672;28;20118;-61
2022/10/15 04:14:39;;;;;;;132.63;68.30;;;;;;;;;;5091090;28;20028;-60
2022/10/15 04:17:05;;;;;;;114.00;66.07;;;;;;;;;;5092597;28;20036;-61
2022/10/15 04:19:31;;;;;;;99.95;68.00;;;;;;;;;;5092506;28;20024;-61
2022/10/15 04:21:57;;;;;;;105.20;67.68;;;;;;;;;;5091274;28;20023;-61
2022/10/15 04:24:23;;;;;;;133.90;68.40;;;;;;;;;;5092565;28;20024;-61
2022/10/15 04:26:49;;;;;;;108.72;67.80;;;;;;;;;;5094378;28;20073;-61
2022/10/15 04:29:15;;;;;;;129.27;72.53;;;;;;;;;;5112867;28;20035;-62
2022/10/15 04:31:42;;;;;;;121.15;70.15;;;;;;;;;;5120259;22;20041;-63
2022/10/15 04:34:08;;;;;;;121.78;68.38;;;;;;;;;;5051275;28;20032;-65
2022/10/15 04:36:34;;;;;;;113.00;69.82;;;;;;;;;;5050767;28;20455;-65
2022/10/15 04:39:00;;;;;;;106.95;65.88;;;;;;;;;;5052034;28;20044;-66
2022/10/15 04:41:26;;;;;;;162.27;75.65;;;;;;;;;;5051952;28;20021;-65
2022/10/15 04:43:52;;;;;;;305.90;89.78;;;;;;;;;;5051857;28;20021;-63
2022/10/15 04:46:21;;;;;;;147.45;71.60;;;;;;;;;;5051666;28;20430;-63
2022/10/15 04:48:47;;;;;;;116.82;66.35;;;;;;;;;;5051888;28;20040;-62
2022/10/15 04:51:14;;;;;;;160.73;70.57;;;;;;;;;;5051403;28;20021;-63
2022/10/15 04:53:40;;;;;;;119.43;67.85;;;;;;;;;;5033762;28;20400;-63
2022/10/15 04:56:08;;;;;;;120.47;67.22;;;;;;;;;;5033754;28;20120;-64
2022/10/15 04:58:35;;;;;;;136.70;69.27;;;;;;;;;;5051262;28;20061;-63
2022/10/15 05:01:06;;;;;;;102.75;65.63;;;;;;;;;;5033956;28;20358;-63
2022/10/15 05:03:33;;;;;;;143.40;68.53;;;;;;;;;;5051352;28;20027;-62
2022/10/15 05:06:03;;;;;;;116.18;71.50;;;;;;;;;;5051717;28;20033;-64
2022/10/15 05:08:30;;;;;;;139.63;65.38;;;;;;;;;;5051749;28;20041;-63
2022/10/15 05:10:59;;;;;;;98.20;65.07;;;;;;;;;;5051654;28;20029;-65
2022/10/15 05:13:25;;;;;;;129.18;66.78;;;;;;;;;;5033366;28;20078;-63
2022/10/15 05:15:51;;;;;;;159.23;69.93;;;;;;;;;;5033555;28;20028;-63
2022/10/15 05:18:17;;;;;;;155.27;66.82;;;;;;;;;;5051380;28;20036;-64
2022/10/15 05:20:43;;;;;;;110.15;65.97;;;;;;;;;;5033472;28;20025;-64
2022/10/15 05:23:09;;;;;;;136.98;68.60;;;;;;;;;;5051117;28;20025;-61
2022/10/15 05:25:35;;;;;;;115.65;69.72;;;;;;;;;;5033454;28;20071;-63
2022/10/15 05:28:01;;;;;;;118.78;72.72;;;;;;;;;;5033244;28;20471;-64
2022/10/15 05:30:28;;;;;;;123.43;71.47;;;;;;;;;;5033310;28;20033;-65
2022/10/15 05:32:54;;;;;;;130.55;71.47;;;;;;;;;;5051019;28;20044;-63
2022/10/15 05:35:20;;;;;;;138.98;76.22;;;;;;;;;;5033223;28;20033;-63
2022/10/15 05:37:48;;;;;;;124.78;71.32;;;;;;;;;;5051282;28;20183;-64
2022/10/15 05:40:14;;;;;;;156.80;76.47;;;;;;;;;;5033534;28;20443;-63
2022/10/15 05:42:40;;;;;;;126.35;71.53;;;;;;;;;;5032866;28;20036;-64
2022/10/15 05:45:06;;;;;;;130.75;72.82;;;;;;;;;;5050980;28;20025;-64
2022/10/15 05:47:32;;;;;;;133.52;71.82;;;;;;;;;;5033249;28;20477;-63
2022/10/15 05:49:58;;;;;;;141.40;75.05;;;;;;;;;;5051304;28;20083;-63
2022/10/15 05:52:24;;;;;;;134.07;68.38;;;;;;;;;;5051003;28;20461;-63
2022/10/15 05:54:50;;;;;;;123.70;70.38;;;;;;;;;;5033118;28;20033;-61
2022/10/15 05:57:16;;;;;;;131.57;71.18;;;;;;;;;;5051034;28;20036;-63
2022/10/15 05:59:42;;;;;;;129.10;71.35;;;;;;;;;;5050750;28;20051;-64
2022/10/15 06:02:14;;;;;;;142.63;72.43;;;;;;;;;;5033159;28;20041;-64
2022/10/15 06:04:40;;;;;;;112.15;69.53;;;;;;;;;;5054495;28;20017;-63
2022/10/15 06:07:06;;;;;;;106.15;68.75;;;;;;;;;;5054640;28;20033;-64
2022/10/15 06:09:32;;;;;;;109.93;69.75;;;;;;;;;;5054562;28;20057;-64
2022/10/15 06:11:58;;;;;;;113.05;70.57;;;;;;;;;;5054668;28;20068;-64
2022/10/15 06:14:24;;;;;;;120.70;73.05;;;;;;;;;;5036392;28;20033;-64
2022/10/15 06:16:53;;;;;;;112.32;71.43;;;;;;;;;;5036471;28;20033;-65
2022/10/15 06:19:19;;;;;;;115.97;72.85;;;;;;;;;;5036555;28;20028;-64
2022/10/15 06:21:45;;;;;;;108.55;72.38;;;;;;;;;;5054415;28;20393;-61
2022/10/15 06:24:11;;;;;;;106.90;74.05;;;;;;;;;;5036490;28;20025;-62
2022/10/15 06:26:37;;;;;;;111.75;71.07;;;;;;;;;;5054536;28;20025;-64
2022/10/15 06:29:03;;;;;;;112.43;75.07;;;;;;;;;;5036329;28;20029;-64
2022/10/15 06:31:29;;;;;;;106.50;76.03;;;;;;;;;;5053979;28;20025;-63
2022/10/15 06:33:55;;;;;;;110.50;73.72;;;;;;;;;;5036233;28;20036;-65
2022/10/15 06:36:23;;;;;;;110.78;75.75;;;;;;;;;;5053914;28;20052;-63
2022/10/15 06:38:49;;;;;;;108.72;75.07;;;;;;;;;;5053932;28;20079;-64
2022/10/15 06:41:15;;;;;;;121.55;79.78;;;;;;;;;;5053748;28;20431;-64
2022/10/15 06:43:42;;;;;;;112.18;75.57;;;;;;;;;;5035966;28;20025;-65
2022/10/15 06:46:08;;;;;;;115.50;80.28;;;;;;;;;;5053895;28;20394;-64
2022/10/15 06:48:34;;;;;;;117.07;80.30;;;;;;;;;;5036014;28;20086;-64
2022/10/15 06:51:00;;;;;;;111.53;77.40;;;;;;;;;;5054071;28;20025;-62
2022/10/15 06:53:27;;;;;;;117.80;78.18;;;;;;;;;;5035637;28;20033;-60
2022/10/15 06:55:56;;;;;;;111.18;78.20;;;;;;;;;;5053810;28;20021;-64
2022/10/15 06:58:22;;;;;;;118.55;79.38;;;;;;;;;;5036133;28;20021;-65
2022/10/15 07:00:48;;;;;;;123.90;79.75;;;;;;;;;;5035941;28;20369;-64
2022/10/15 07:03:14;;;;;;;114.57;80.78;;;;;;;;;;5036130;28;20115;-64
2022/10/15 07:05:40;;;;;;;105.13;76.43;;;;;;;;;;5054138;28;20451;-63
2022/10/15 07:08:06;;;;;;;113.82;82.30;;;;;;;;;;5036433;28;20031;-63
2022/10/15 07:10:32;;;;;;;113.57;80.97;;;;;;;;;;5054649;28;20028;-65
2022/10/15 07:13:01;;;;;;;101.57;74.78;;;;;;;;;;5036082;28;20021;-65
2022/10/15 07:15:28;;;;;;;100.85;76.60;;;;;;;;;;5052915;28;20029;-63
2022/10/15 07:18:01;;;;;;;98.22;73.97;;;;;;;;;;5036385;28;20033;-64
2022/10/15 07:20:31;;;;;;;98.93;75.38;;;;;;;;;;5036751;28;20108;-65
2022/10/15 07:22:57;;;;;;;92.85;73.28;;;;;;;;;;5054565;28;20060;-65
2022/10/15 07:25:24;;;;;;;92.63;70.35;;;;;;;;;;5053798;28;20468;-64
2022/10/15 07:27:50;;;;;;;97.97;71.45;;;;;;;;;;5035349;28;20040;-61
2022/10/15 07:30:16;;;;;;;82.53;66.38;;;;;;;;;;5035463;28;20029;-64
2022/10/15 07:32:42;;;;;;;78.50;63.03;;;;;;;;;;5035525;28;20037;-64
2022/10/15 07:35:08;;;;;;;85.43;68.05;;;;;;;;;;5035212;28;20082;-63
2022/10/15 07:37:34;;;;;;;78.70;64.03;;;;;;;;;;5053238;28;20024;-64
2022/10/15 07:40:00;;;;;;;74.25;59.67;;;;;;;;;;5053236;28;20017;-64
2022/10/15 07:42:26;;;;;;;61.80;53.90;;;;;;;;;;5052928;28;20031;-63
2022/10/15 07:44:53;;;;;;;73.40;56.97;;;;;;;;;;5052876;28;20031;-62
2022/10/15 07:47:19;;;;;;;71.35;59.58;;;;;;;;;;5052921;28;20029;-64
2022/10/15 07:49:45;;;;;;;63.17;55.35;;;;;;;;;;5053078;28;20107;-63
2022/10/15 07:52:11;;;;;;;69.70;59.05;;;;;;;;;;5052828;28;20126;-65
2022/10/15 07:54:37;;;;;;;69.90;59.25;;;;;;;;;;5034644;28;20453;-60
2022/10/15 07:57:03;;;;;;;70.03;60.20;;;;;;;;;;5034359;28;20029;-64
2022/10/15 07:59:29;;;;;;;70.25;59.30;;;;;;;;;;5034788;28;20021;-64
2022/10/15 08:01:55;;;;;;;70.18;58.78;;;;;;;;;;5034446;28;20457;-65
2022/10/15 08:04:21;;;;;;;66.72;59.25;;;;;;;;;;5034580;28;20025;-64
2022/10/15 08:06:48;;;;;;;63.08;56.42;;;;;;;;;;5034880;28;20033;-65
2022/10/15 08:09:14;;;;;;;62.85;55.95;;;;;;;;;;5052591;28;20024;-63
2022/10/15 08:11:40;;;;;;;59.85;53.50;;;;;;;;;;5052714;28;20032;-64
2022/10/15 08:14:06;;;;;;;63.42;55.30;;;;;;;;;;5052568;28;20518;-64
2022/10/15 08:16:32;;;;;;;61.25;54.80;;;;;;;;;;5034883;28;20125;-63
2022/10/15 08:18:59;;;;;;;58.92;52.65;;;;;;;;;;5052393;28;20393;-63
2022/10/15 08:21:25;;;;;;;58.20;52.08;;;;;;;;;;5034496;28;20043;-64
2022/10/15 08:23:51;;;;;;;58.05;52.10;;;;;;;;;;5052094;28;20017;-63
2022/10/15 08:26:18;;;;;;;60.72;54.35;;;;;;;;;;5051924;28;20055;-64
2022/10/15 08:28:44;;;;;;;56.17;50.38;;;;;;;;;;5052097;28;20036;-62
2022/10/15 08:31:10;;;;;;;60.33;53.30;;;;;;;;;;5034518;28;20508;-65
2022/10/15 08:33:37;;;;;;;56.58;50.70;;;;;;;;;;5052023;28;20053;-63
2022/10/15 08:36:06;;;;;;;55.15;49.53;;;;;;;;;;5052192;28;20025;-65
2022/10/15 08:38:32;;;;;;;54.97;49.17;;;;;;;;;;5033911;28;20021;-66
2022/10/15 08:40:59;;;;;;;52.28;46.72;;;;;;;;;;5034324;28;20066;-65
2022/10/15 08:43:35;;;;;;;52.53;47.05;;;;;;;;;;5051566;28;20481;-63
2022/10/15 08:46:03;;;;;;;52.95;47.45;;;;;;;;;;5051728;28;20025;-63
2022/10/15 08:48:31;;;;;;;50.92;45.63;;;;;;;;;;5051870;28;20028;-65
2022/10/15 08:51:12;;;;;;;53.58;46.70;;;;;;;;;;5034092;28;20025;-63
2022/10/15 08:53:40;;;;;;;51.10;45.72;;;;;;;;;;5051389;28;20071;-64
2022/10/15 08:56:12;;;;;;;51.88;46.58;;;;;;;;;;5051740;28;20017;-64
2022/10/15 08:58:38;;;;;;;52.10;45.58;;;;;;;;;;5051270;28;20550;-64
2022/10/15 09:01:06;;;;;;;49.72;44.45;;;;;;;;;;5034014;28;20029;-64
2022/10/15 09:03:44;;;;;;;48.78;43.65;;;;;;;;;;5033803;28;20442;-64
2022/10/15 09:06:28;;;;;;;48.77;43.83;;;;;;;;;;5051969;28;20116;-64
2022/10/15 09:09:09;;;;;;;45.60;40.88;;;;;;;;;;5033941;28;20279;-64
2022/10/15 09:11:47;;;;;;;46.88;41.83;;;;;;;;;;5033824;28;20053;-64
2022/10/15 09:14:15;;;;;;;45.58;38.97;;;;;;;;;;5033435;28;20120;-65
2022/10/15 09:16:43;;;;;;;43.85;39.15;;;;;;;;;;5051433;28;20112;-64
2022/10/15 09:19:23;;;;;;;45.58;40.45;;;;;;;;;;5033579;28;20456;-63
2022/10/15 09:21:50;;;;;;;42.83;38.22;;;;;;;;;;5033573;28;20021;-63
2022/10/15 09:24:27;;;;;;;42.85;38.22;;;;;;;;;;5051157;28;20021;-65
2022/10/15 09:26:53;;;;;;;42.05;37.55;;;;;;;;;;5033410;28;20590;-63
2022/10/15 09:29:30;;;;;;;38.65;32.90;;;;;;;;;;5050982;28;20029;-64
2022/10/15 09:32:15;;;;;;;39.50;35.17;;;;;;;;;;5050967;28;20029;-63
2022/10/15 09:34:44;;;;;;;41.60;35.78;;;;;;;;;;5033597;28;20111;-64
2022/10/15 09:37:16;;;;;;;40.30;33.00;;;;;;;;;;5034026;28;20083;-64
2022/10/15 09:39:42;;;;;;;37.33;32.78;;;;;;;;;;5037599;28;20484;-63
2022/10/15 09:42:17;;;;;;;39.20;32.20;;;;;;;;;;5055158;28;20055;-64
2022/10/15 09:44:44;;;;;;;37.70;32.28;;;;;;;;;;5037161;28;20021;-64
2022/10/15 09:47:22;;;;;;;38.35;32.17;;;;;;;;;;5055427;28;20103;-62
2022/10/15 09:49:48;;;;;;;39.53;32.03;;;;;;;;;;5055047;28;20062;-63
2022/10/15 09:52:14;;;;;;;39.17;29.90;;;;;;;;;;5036908;28;20075;-63
2022/10/15 09:54:52;;;;;;;36.75;30.55;;;;;;;;;;5037073;28;20029;-64
2022/10/15 09:57:24;;;;;;;37.10;31.25;;;;;;;;;;5036842;28;20039;-66
2022/10/15 10:00:00;;;;;;;35.67;30.20;;;;;;;;;;5055549;28;20040;-66
2022/10/15 10:02:26;;;;;;;32.25;28.10;;;;;;;;;;5018042;28;20033;-65
2022/10/15 10:04:53;;;;;;;32.05;26.10;;;;;;;;;;5034984;28;20471;-64
2022/10/15 10:07:33;;;;;;;31.60;27.10;;;;;;;;;;5034844;28;20393;-64
2022/10/15 10:10:17;;;;;;;29.50;24.35;;;;;;;;;;5034840;28;20057;-64
2022/10/15 10:12:44;;;;;;;28.40;24.48;;;;;;;;;;5016839;28;20036;-65
2022/10/15 10:15:22;;;;;;;26.98;22.85;;;;;;;;;;5034576;28;20021;-65
2022/10/15 10:17:54;;;;;;;26.05;22.02;;;;;;;;;;5034798;28;20041;-64
2022/10/15 10:20:22;;;;;;;29.13;24.08;;;;;;;;;;5034783;28;20027;-65
2022/10/15 10:22:55;;;;;;;30.73;24.52;;;;;;;;;;5016857;28;20455;-66
2022/10/15 10:25:27;;;;;;;27.75;22.38;;;;;;;;;;5034506;28;20036;-64
2022/10/15 10:28:14;;;;;;;28.20;23.73;;;;;;;;;;5025529;28;20090;-65
2022/10/15 10:30:52;;;;;;;26.52;22.13;;;;;;;;;;5054319;28;20082;-64
2022/10/15 10:33:18;;;;;;;;;;;;;;;;;;5067638;22;20048;-59
2022/10/15 10:35:45;;;;;;;28.13;21.95;;;;;;;;;;5034662;28;19904;-61
2022/10/15 10:38:26;;;;;;;28.40;22.05;;;;;;;;;;5052225;28;20029;-61
2022/10/15 10:40:57;;;;;;;26.02;18.45;;;;;;;;;;5052483;28;20470;-62
2022/10/15 10:43:28;;;;;;;22.77;17.45;;;;;;;;;;5033577;28;20481;-61
2022/10/15 10:45:55;;;;;;;24.13;18.55;;;;;;;;;;5034050;28;20082;-62
2022/10/15 10:48:29;;;;;;;22.75;16.27;;;;;;;;;;5051495;28;20082;-61
2022/10/15 10:51:08;;;;;;;22.52;16.63;;;;;;;;;;5032340;28;20108;-62
2022/10/15 10:53:38;;;;;;;21.80;16.02;;;;;;;;;;5032490;28;20037;-62
2022/10/15 10:56:06;;;;;;;21.63;15.32;;;;;;;;;;5032521;28;20120;-61
2022/10/15 10:58:33;;;;;;;21.20;15.25;;;;;;;;;;5032718;28;20044;-60
2022/10/15 11:00:59;;;;;;;19.15;13.40;;;;;;;;;;5032548;28;20105;-62
2022/10/15 11:03:25;;;;;;;18.67;13.37;;;;;;;;;;4687103;28;9999680;-62
2022/10/15 11:05:55;;;;;;;19.08;13.93;;;;;;;;;;5030590;28;20345;-62
2022/10/15 11:08:27;;;;;;;18.95;14.07;;;;;;;;;;5049139;28;20489;-62
2022/10/15 11:10:56;;;;;;;20.00;14.40;;;;;;;;;;5048948;28;20021;-62
2022/10/15 11:13:29;;;;;;;18.40;13.68;;;;;;;;;;5048612;28;20400;-63
2022/10/15 11:16:14;;;;;;;19.65;14.13;;;;;;;;;;5048449;28;20120;-61
2022/10/15 11:18:49;;;;;;;19.05;13.25;;;;;;;;;;5048301;28;20477;-63
2022/10/15 11:21:18;;;;;;;17.83;12.55;;;;;;;;;;5048706;28;20083;-63
2022/10/15 11:23:50;;;;;;;17.33;12.20;;;;;;;;;;5048194;28;20029;-63
2022/10/15 11:26:19;;;;;;;17.50;11.45;;;;;;;;;;5031323;28;20428;-61
2022/10/15 11:29:04;;;;;;;18.48;12.50;;;;;;;;;;5032060;28;20504;-63
2022/10/15 11:31:30;;;;;;;17.35;11.80;;;;;;;;;;5049244;28;20080;-62
2022/10/15 11:34:02;;;;;;;20.17;11.70;;;;;;;;;;5048979;28;20029;-61
2022/10/15 11:36:28;;;;;;;17.38;11.95;;;;;;;;;;5048736;28;20033;-62
2022/10/15 11:39:13;;;;;;;17.38;11.65;;;;;;;;;;5048728;28;20032;-62
2022/10/15 11:41:43;;;;;;;16.63;11.45;;;;;;;;;;5048240;28;20021;-61
2022/10/15 11:44:18;;;;;;;16.00;10.55;;;;;;;;;;5048578;28;20469;-63
2022/10/15 11:46:59;;;;;;;18.02;10.63;;;;;;;;;;5048859;28;20124;-62
2022/10/15 11:49:40;;;;;;;17.90;8.95;;;;;;;;;;5030197;28;20107;-62
2022/10/15 11:52:12;;;;;;;15.80;9.30;;;;;;;;;;5048039;28;20033;-62
2022/10/15 11:54:40;;;;;;;15.55;9.32;;;;;;;;;;5049613;28;20108;-63
2022/10/15 11:57:08;;;;;;;14.70;8.90;;;;;;;;;;5030740;28;20028;-62
2022/10/15 11:59:34;;;;;;;;;;;;;;;;;;5050937;28;20063;-62
2022/10/15 12:02:06;;;;;;;15.90;9.02;;;;;;;;;;5032373;28;19954;-61
2022/10/15 12:04:32;;;;;;;14.70;9.10;;;;;;;;;;5050791;28;20033;-62
2022/10/15 12:07:00;;;;;;;15.55;9.63;;;;;;;;;;5050606;28;20048;-61
2022/10/15 12:09:28;;;;;;;15.20;9.70;;;;;;;;;;5050332;28;20036;-62
2022/10/15 12:11:57;;;;;;;15.68;9.25;;;;;;;;;;5050955;28;20029;-62
2022/10/15 12:14:33;;;;;;;15.45;9.05;;;;;;;;;;4700322;28;9999813;-63
2022/10/15 12:17:02;;;;;;;14.60;9.00;;;;;;;;;;5049959;28;20036;-62
2022/10/15 12:19:29;;;;;;;15.10;9.35;;;;;;;;;;5032022;28;20780;-62
2022/10/15 12:21:55;;;;;;;14.80;9.50;;;;;;;;;;5050233;28;20021;-63
2022/10/15 12:24:39;;;;;;;16.50;9.80;;;;;;;;;;5050178;28;20013;-64
2022/10/15 12:27:20;;;;;;;15.65;10.23;;;;;;;;;;5050260;28;20029;-63
2022/10/15 12:30:11;;;;;;;14.88;10.30;;;;;;;;;;5050361;28;20028;-62
2022/10/15 12:32:42;;;;;;;14.50;9.95;;;;;;;;;;5049513;28;20037;-61
2022/10/15 12:35:14;;;;;;;16.50;9.95;;;;;;;;;;5030605;28;20135;-63
2022/10/15 12:37:41;;;;;;;15.55;10.95;;;;;;;;;;5050037;28;20032;-63
2022/10/15 12:40:24;;;;;;;15.43;11.15;;;;;;;;;;5050443;28;20025;-62
2022/10/15 12:42:55;;;;;;;15.82;11.52;;;;;;;;;;5050016;28;20096;-65
2022/10/15 12:45:25;;;;;;;16.58;11.10;;;;;;;;;;5050040;28;20108;-63
2022/10/15 12:47:52;;;;;;;17.30;11.30;;;;;;;;;;5050327;28;20025;-63
2022/10/15 12:50:23;;;;;;;15.98;11.50;;;;;;;;;;5050464;28;20039;-62
2022/10/15 12:52:49;;;;;;;14.63;10.45;;;;;;;;;;5049790;28;20108;-62
2022/10/15 12:55:20;;;;;;;15.27;10.95;;;;;;;;;;5049954;28;20056;-61
2022/10/15 12:57:46;;;;;;;15.93;11.30;;;;;;;;;;5050047;28;20020;-61
2022/10/15 13:00:24;;;;;;;16.63;12.85;;;;;;;;;;5050136;28;20024;-60
2022/10/15 13:02:51;;;;;;;15.70;12.30;;;;;;;;;;5049954;28;20104;-61
2022/10/15 13:05:30;;;;;;;15.70;12.98;;;;;;;;;;5049896;28;20029;-62
2022/10/15 13:07:57;;;;;;;16.83;13.20;;;;;;;;;;5049917;28;20029;-60
2022/10/15 13:10:29;;;;;;;16.73;12.75;;;;;;;;;;5031960;28;20029;-61
2022/10/15 13:12:57;;;;;;;22.67;12.48;;;;;;;;;;5053107;28;20063;-61
2022/10/15 13:15:24;;;;;;;15.98;12.52;;;;;;;;;;5053985;28;20029;-59
2022/10/15 13:17:50;;;;;;;17.00;12.23;;;;;;;;;;5035813;28;20029;-60
2022/10/15 13:20:31;;;;;;;15.88;12.27;;;;;;;;;;5054192;28;20100;-61
2022/10/15 13:23:15;;;;;;;16.95;13.00;;;;;;;;;;5053931;28;20017;-60
2022/10/15 13:25:41;;;;;;;17.15;13.68;;;;;;;;;;5054100;28;20136;-61
2022/10/15 13:28:46;;;;;;;18.83;16.92;;;;;;;;;;5053931;28;20461;-61
2022/10/15 13:31:12;;;;;;;29.58;27.08;;;;;;;;;;4992105;28;20050;-61
2022/10/15 13:33:41;;;;;;;28.50;26.00;;;;;;;;;;4991829;28;20044;-61
2022/10/15 13:36:07;;;;;;;28.52;26.20;;;;;;;;;;5022418;28;20198;-61
2022/10/15 13:38:35;;;;;;;28.63;26.25;;;;;;;;;;5053694;28;20029;-61
2022/10/15 13:41:01;;;;;;;27.95;25.65;;;;;;;;;;5053736;28;20021;-61
2022/10/15 13:43:27;;;;;;;27.48;25.25;;;;;;;;;;5033271;28;20507;-61
2022/10/15 13:45:54;;;;;;;25.98;23.77;;;;;;;;;;5034386;28;20101;-62
2022/10/15 13:48:22;;;;;;;27.08;24.85;;;;;;;;;;5033689;28;20489;-61
2022/10/15 13:50:51;;;;;;;26.87;24.67;;;;;;;;;;5033516;28;20033;-62
2022/10/15 13:53:17;;;;;;;;;;;;;;;;;;5037487;28;20322;-62
2022/10/15 13:55:47;;;;;;;23.70;21.60;;;;;;;;;;5037290;28;20303;-61
2022/10/15 13:58:22;;;;;;;22.40;20.40;;;;;;;;;;5040706;28;20368;-61
2022/10/15 14:00:55;;;;;;;22.65;20.40;;;;;;;;;;5021000;28;20029;-61
2022/10/15 14:03:22;;;;;;;22.63;20.52;;;;;;;;;;5036075;28;20853;-61
2022/10/15 14:05:50;;;;;;;22.00;20.00;;;;;;;;;;5033430;28;20021;-59
2022/10/15 14:08:24;;;;;;;21.27;19.27;;;;;;;;;;5016846;28;20048;-62
2022/10/15 14:10:51;;;;;;;17.05;14.60;;;;;;;;;;5034629;28;20045;-61
2022/10/15 14:13:17;;;;;;;16.95;14.77;;;;;;;;;;5052301;28;20071;-60
2022/10/15 14:15:44;;;;;;;17.50;15.60;;;;;;;;;;4353691;28;9999939;-62
2022/10/15 14:18:11;;;;;;;17.55;15.65;;;;;;;;;;5052485;28;20549;-62
2022/10/15 14:20:38;;;;;;;18.83;15.93;;;;;;;;;;5051713;28;20017;-61
2022/10/15 14:23:04;;;;;;;18.40;16.50;;;;;;;;;;5033584;28;20263;-61
2022/10/15 14:25:30;;;;;;;18.75;16.80;;;;;;;;;;5052782;28;20028;-62